sensor_id;sensor_type;location;lat;lon;timestamp;P1;durP1;ratioP1;P2;durP2;ratioP2
57667;SDS011;43499;52.366;12.912;2023-02-13T00:00:08;24.48;;;11.70;;
57667;SDS011;43499;52.366;12.912;2023-02-13T00:01:11;26.15;;;11.73;;
57667;SDS011;43499;52.366;12.912;2023-02-13T00:02:26;27.65;;;12.38;;
57667;SDS011;43499;52.366;12.912;2023-02-13T00:03:27;25.95;;;12.38;;
57667;SDS011;43499;52.366;12.912;2023-02-13T00:04:36;26.33;;;12.73;;
57667;SDS011;43499;52.366;12.912;2023-02-13T00:05:37;23.77;;;11.85;;
57667;SDS011;43499;52.366;12.912;2023-02-13T00:06:38;26.70;;;12.13;;
57667;SDS011;43499;52.366;12.912;2023-02-13T00:07:42;22.83;;;11.75;;
57667;SDS011;43499;52.366;12.912;2023-02-13T00:08:43;26.17;;;10.85;;
57667;SDS011;43499;52.366;12.912;2023-02-13T00:09:44;26.10;;;11.75;;
57667;SDS011;43499;52.366;12.912;2023-02-13T00:10:50;21.92;;;11.10;;
57667;SDS011;43499;52.366;12.912;2023-02-13T00:11:51;27.92;;;11.68;;
57667;SDS011;43499;52.366;12.912;2023-02-13T00:12:55;22.88;;;11.98;;
57667;SDS011;43499;52.366;12.912;2023-02-13T00:13:59;24.48;;;11.63;;
57667;SDS011;43499;52.366;12.912;2023-02-13T00:15:00;22.60;;;11.88;;
57667;SDS011;43499;52.366;12.912;2023-02-13T00:16:02;26.38;;;10.95;;
57667;SDS011;43499;52.366;12.912;2023-02-13T00:17:10;22.48;;;11.38;;
57667;SDS011;43499;52.366;12.912;2023-02-13T00:18:12;22.80;;;11.30;;
57667;SDS011;43499;52.366;12.912;2023-02-13T00:19:35;24.50;;;10.27;;
57667;SDS011;43499;52.366;12.912;2023-02-13T00:20:39;19.42;;;9.65;;
57667;SDS011;43499;52.366;12.912;2023-02-13T00:21:46;22.00;;;10.65;;
57667;SDS011;43499;52.366;12.912;2023-02-13T00:22:57;22.50;;;10.68;;
57667;SDS011;43499;52.366;12.912;2023-02-13T00:23:59;21.48;;;9.80;;
57667;SDS011;43499;52.366;12.912;2023-02-13T00:25:00;19.23;;;10.25;;
57667;SDS011;43499;52.366;12.912;2023-02-13T00:26:04;23.10;;;10.60;;
57667;SDS011;43499;52.366;12.912;2023-02-13T00:27:19;20.83;;;9.50;;
57667;SDS011;43499;52.366;12.912;2023-02-13T00:28:29;19.40;;;9.27;;
57667;SDS011;43499;52.366;12.912;2023-02-13T00:29:39;16.95;;;9.25;;
57667;SDS011;43499;52.366;12.912;2023-02-13T00:30:40;20.52;;;9.55;;
57667;SDS011;43499;52.366;12.912;2023-02-13T00:31:44;25.92;;;10.23;;
57667;SDS011;43499;52.366;12.912;2023-02-13T00:32:46;19.63;;;10.18;;
57667;SDS011;43499;52.366;12.912;2023-02-13T00:33:47;17.48;;;9.13;;
57667;SDS011;43499;52.366;12.912;2023-02-13T00:34:49;18.55;;;9.18;;
57667;SDS011;43499;52.366;12.912;2023-02-13T00:35:50;18.02;;;9.30;;
57667;SDS011;43499;52.366;12.912;2023-02-13T00:36:57;20.73;;;9.55;;
57667;SDS011;43499;52.366;12.912;2023-02-13T00:37:58;19.77;;;9.95;;
57667;SDS011;43499;52.366;12.912;2023-02-13T00:39:11;19.30;;;9.57;;
57667;SDS011;43499;52.366;12.912;2023-02-13T00:40:12;19.02;;;9.23;;
57667;SDS011;43499;52.366;12.912;2023-02-13T00:41:17;20.23;;;9.95;;
57667;SDS011;43499;52.366;12.912;2023-02-13T00:42:25;19.95;;;10.25;;
57667;SDS011;43499;52.366;12.912;2023-02-13T00:43:26;19.10;;;9.43;;
57667;SDS011;43499;52.366;12.912;2023-02-13T00:44:27;20.60;;;9.65;;
57667;SDS011;43499;52.366;12.912;2023-02-13T00:45:28;18.13;;;9.50;;
57667;SDS011;43499;52.366;12.912;2023-02-13T00:46:46;19.52;;;9.02;;
57667;SDS011;43499;52.366;12.912;2023-02-13T00:47:50;19.88;;;9.02;;
57667;SDS011;43499;52.366;12.912;2023-02-13T00:49:01;20.17;;;9.52;;
57667;SDS011;43499;52.366;12.912;2023-02-13T00:50:11;17.70;;;9.60;;
57667;SDS011;43499;52.366;12.912;2023-02-13T00:51:23;17.63;;;9.63;;
57667;SDS011;43499;52.366;12.912;2023-02-13T00:52:25;18.77;;;9.45;;
57667;SDS011;43499;52.366;12.912;2023-02-13T00:53:32;18.63;;;9.90;;
57667;SDS011;43499;52.366;12.912;2023-02-13T00:55:05;21.20;;;9.38;;
57667;SDS011;43499;52.366;12.912;2023-02-13T00:56:18;20.60;;;10.18;;
57667;SDS011;43499;52.366;12.912;2023-02-13T00:57:20;20.60;;;8.90;;
57667;SDS011;43499;52.366;12.912;2023-02-13T00:58:41;21.13;;;9.77;;
57667;SDS011;43499;52.366;12.912;2023-02-13T00:59:55;24.45;;;10.50;;
57667;SDS011;43499;52.366;12.912;2023-02-13T01:01:09;22.52;;;9.90;;
57667;SDS011;43499;52.366;12.912;2023-02-13T01:02:11;20.65;;;10.10;;
57667;SDS011;43499;52.366;12.912;2023-02-13T01:03:17;20.40;;;10.20;;
57667;SDS011;43499;52.366;12.912;2023-02-13T01:04:30;22.65;;;9.88;;
57667;SDS011;43499;52.366;12.912;2023-02-13T01:05:32;19.63;;;10.18;;
57667;SDS011;43499;52.366;12.912;2023-02-13T01:08:16;20.48;;;10.27;;
57667;SDS011;43499;52.366;12.912;2023-02-13T01:10:27;16.33;;;9.07;;
57667;SDS011;43499;52.366;12.912;2023-02-13T01:11:33;17.40;;;9.63;;
57667;SDS011;43499;52.366;12.912;2023-02-13T01:12:36;26.50;;;11.35;;
57667;SDS011;43499;52.366;12.912;2023-02-13T01:13:44;21.38;;;9.85;;
57667;SDS011;43499;52.366;12.912;2023-02-13T01:14:54;19.50;;;9.73;;
57667;SDS011;43499;52.366;12.912;2023-02-13T01:15:56;23.77;;;10.65;;
57667;SDS011;43499;52.366;12.912;2023-02-13T01:18:06;19.13;;;9.20;;
57667;SDS011;43499;52.366;12.912;2023-02-13T01:19:20;21.35;;;9.77;;
57667;SDS011;43499;52.366;12.912;2023-02-13T01:20:33;23.48;;;9.48;;
57667;SDS011;43499;52.366;12.912;2023-02-13T01:21:36;18.17;;;9.32;;
57667;SDS011;43499;52.366;12.912;2023-02-13T01:22:38;20.15;;;10.13;;
57667;SDS011;43499;52.366;12.912;2023-02-13T01:23:47;23.30;;;10.05;;
57667;SDS011;43499;52.366;12.912;2023-02-13T01:24:51;20.38;;;10.50;;
57667;SDS011;43499;52.366;12.912;2023-02-13T01:25:53;24.48;;;11.60;;
57667;SDS011;43499;52.366;12.912;2023-02-13T01:26:54;19.52;;;10.55;;
57667;SDS011;43499;52.366;12.912;2023-02-13T01:27:58;19.75;;;10.73;;
57667;SDS011;43499;52.366;12.912;2023-02-13T01:29:02;20.40;;;9.85;;
57667;SDS011;43499;52.366;12.912;2023-02-13T01:30:14;19.65;;;10.20;;
57667;SDS011;43499;52.366;12.912;2023-02-13T01:31:45;23.42;;;9.93;;
57667;SDS011;43499;52.366;12.912;2023-02-13T01:35:19;18.25;;;8.85;;
57667;SDS011;43499;52.366;12.912;2023-02-13T01:37:50;19.02;;;8.18;;
57667;SDS011;43499;52.366;12.912;2023-02-13T01:40:09;17.08;;;9.18;;
57667;SDS011;43499;52.366;12.912;2023-02-13T01:41:52;16.65;;;8.60;;
57667;SDS011;43499;52.366;12.912;2023-02-13T01:43:41;23.75;;;9.88;;
57667;SDS011;43499;52.366;12.912;2023-02-13T01:49:02;17.60;;;8.20;;
57667;SDS011;43499;52.366;12.912;2023-02-13T01:51:27;17.05;;;9.27;;
57667;SDS011;43499;52.366;12.912;2023-02-13T01:56:34;18.60;;;8.90;;
57667;SDS011;43499;52.366;12.912;2023-02-13T01:58:54;22.38;;;9.75;;
57667;SDS011;43499;52.366;12.912;2023-02-13T02:00:30;16.45;;;8.10;;
57667;SDS011;43499;52.366;12.912;2023-02-13T02:06:16;18.83;;;8.65;;
57667;SDS011;43499;52.366;12.912;2023-02-13T02:10:03;19.20;;;9.75;;
57667;SDS011;43499;52.366;12.912;2023-02-13T02:12:41;15.73;;;8.32;;
57667;SDS011;43499;52.366;12.912;2023-02-13T02:15:10;17.85;;;9.02;;
57667;SDS011;43499;52.366;12.912;2023-02-13T02:17:21;17.20;;;8.68;;
57667;SDS011;43499;52.366;12.912;2023-02-13T02:18:56;18.98;;;8.77;;
57667;SDS011;43499;52.366;12.912;2023-02-13T02:48:28;18.48;;;8.43;;
57667;SDS011;43499;52.366;12.912;2023-02-13T03:10:55;17.08;;;8.93;;
57667;SDS011;43499;52.366;12.912;2023-02-13T03:16:20;15.38;;;7.22;;
57667;SDS011;43499;52.366;12.912;2023-02-13T03:18:54;17.98;;;7.72;;
57667;SDS011;43499;52.366;12.912;2023-02-13T03:38:00;21.90;;;8.68;;
57667;SDS011;43499;52.366;12.912;2023-02-13T03:45:36;18.50;;;8.52;;
57667;SDS011;43499;52.366;12.912;2023-02-13T03:48:04;22.33;;;8.77;;
57667;SDS011;43499;52.366;12.912;2023-02-13T03:53:27;18.48;;;8.65;;
57667;SDS011;43499;52.366;12.912;2023-02-13T03:55:18;19.98;;;9.52;;
57667;SDS011;43499;52.366;12.912;2023-02-13T03:57:13;17.23;;;8.02;;
57667;SDS011;43499;52.366;12.912;2023-02-13T04:07:36;16.20;;;8.15;;
57667;SDS011;43499;52.366;12.912;2023-02-13T04:09:39;18.55;;;8.52;;
57667;SDS011;43499;52.366;12.912;2023-02-13T04:19:57;17.13;;;8.20;;
57667;SDS011;43499;52.366;12.912;2023-02-13T04:24:00;17.92;;;8.50;;
57667;SDS011;43499;52.366;12.912;2023-02-13T04:26:25;19.63;;;8.10;;
57667;SDS011;43499;52.366;12.912;2023-02-13T04:28:27;19.20;;;9.18;;
57667;SDS011;43499;52.366;12.912;2023-02-13T04:30:23;16.83;;;8.57;;
57667;SDS011;43499;52.366;12.912;2023-02-13T04:37:22;19.00;;;7.90;;
57667;SDS011;43499;52.366;12.912;2023-02-13T04:39:37;16.05;;;8.23;;
57667;SDS011;43499;52.366;12.912;2023-02-13T04:41:16;20.10;;;9.13;;
57667;SDS011;43499;52.366;12.912;2023-02-13T04:48:45;20.35;;;9.10;;
57667;SDS011;43499;52.366;12.912;2023-02-13T04:53:27;17.88;;;8.23;;
57667;SDS011;43499;52.366;12.912;2023-02-13T04:59:28;20.35;;;9.02;;
57667;SDS011;43499;52.366;12.912;2023-02-13T05:03:36;25.17;;;9.27;;
57667;SDS011;43499;52.366;12.912;2023-02-13T05:06:59;19.35;;;9.50;;
57667;SDS011;43499;52.366;12.912;2023-02-13T05:09:27;22.73;;;10.45;;
57667;SDS011;43499;52.366;12.912;2023-02-13T05:27:26;18.65;;;9.05;;
57667;SDS011;43499;52.366;12.912;2023-02-13T05:32:33;18.02;;;8.85;;
57667;SDS011;43499;52.366;12.912;2023-02-13T05:40:06;23.67;;;10.70;;
57667;SDS011;43499;52.366;12.912;2023-02-13T05:43:56;20.33;;;10.20;;
57667;SDS011;43499;52.366;12.912;2023-02-13T05:54:10;21.95;;;9.88;;
57667;SDS011;43499;52.366;12.912;2023-02-13T05:59:13;25.60;;;10.13;;
57667;SDS011;43499;52.366;12.912;2023-02-13T06:06:25;23.00;;;10.05;;
57667;SDS011;43499;52.366;12.912;2023-02-13T06:09:08;23.23;;;10.30;;
57667;SDS011;43499;52.366;12.912;2023-02-13T06:15:55;17.00;;;8.80;;
57667;SDS011;43499;52.366;12.912;2023-02-13T06:18:14;18.60;;;9.70;;
57667;SDS011;43499;52.366;12.912;2023-02-13T06:30:46;15.23;;;7.95;;
57667;SDS011;43499;52.366;12.912;2023-02-13T06:32:05;18.77;;;8.43;;
57667;SDS011;43499;52.366;12.912;2023-02-13T06:37:22;12.73;;;7.43;;
57667;SDS011;43499;52.366;12.912;2023-02-13T06:49:26;18.98;;;8.65;;
57667;SDS011;43499;52.366;12.912;2023-02-13T07:01:19;15.15;;;6.70;;
57667;SDS011;43499;52.366;12.912;2023-02-13T07:05:04;17.83;;;7.38;;
57667;SDS011;43499;52.366;12.912;2023-02-13T07:07:12;20.33;;;7.60;;
57667;SDS011;43499;52.366;12.912;2023-02-13T07:11:42;17.00;;;7.78;;
57667;SDS011;43499;52.366;12.912;2023-02-13T07:13:22;13.48;;;6.60;;
57667;SDS011;43499;52.366;12.912;2023-02-13T07:15:12;14.90;;;7.78;;
57667;SDS011;43499;52.366;12.912;2023-02-13T07:17:56;16.17;;;8.05;;
57667;SDS011;43499;52.366;12.912;2023-02-13T07:19:37;18.35;;;9.10;;
57667;SDS011;43499;52.366;12.912;2023-02-13T07:21:39;19.48;;;8.25;;
57667;SDS011;43499;52.366;12.912;2023-02-13T07:25:40;19.77;;;9.38;;
57667;SDS011;43499;52.366;12.912;2023-02-13T07:27:20;18.45;;;8.45;;
57667;SDS011;43499;52.366;12.912;2023-02-13T07:32:02;19.80;;;8.38;;
57667;SDS011;43499;52.366;12.912;2023-02-13T07:33:49;24.08;;;10.32;;
57667;SDS011;43499;52.366;12.912;2023-02-13T07:34:54;15.98;;;8.63;;
57667;SDS011;43499;52.366;12.912;2023-02-13T07:36:10;21.25;;;9.40;;
57667;SDS011;43499;52.366;12.912;2023-02-13T07:37:14;24.00;;;10.45;;
57667;SDS011;43499;52.366;12.912;2023-02-13T07:38:25;22.98;;;10.88;;
57667;SDS011;43499;52.366;12.912;2023-02-13T07:39:26;24.00;;;9.93;;
57667;SDS011;43499;52.366;12.912;2023-02-13T07:40:27;19.58;;;9.68;;
57667;SDS011;43499;52.366;12.912;2023-02-13T07:41:28;20.10;;;10.35;;
57667;SDS011;43499;52.366;12.912;2023-02-13T07:42:32;23.10;;;10.82;;
57667;SDS011;43499;52.366;12.912;2023-02-13T07:43:34;26.23;;;10.68;;
57667;SDS011;43499;52.366;12.912;2023-02-13T07:44:35;22.25;;;10.27;;
57667;SDS011;43499;52.366;12.912;2023-02-13T07:45:36;21.42;;;10.40;;
57667;SDS011;43499;52.366;12.912;2023-02-13T07:46:37;23.20;;;10.68;;
57667;SDS011;43499;52.366;12.912;2023-02-13T07:47:38;20.67;;;10.35;;
57667;SDS011;43499;52.366;12.912;2023-02-13T07:48:39;23.00;;;10.13;;
57667;SDS011;43499;52.366;12.912;2023-02-13T07:49:41;24.35;;;10.55;;
57667;SDS011;43499;52.366;12.912;2023-02-13T07:50:44;23.83;;;10.93;;
57667;SDS011;43499;52.366;12.912;2023-02-13T07:51:45;25.25;;;10.48;;
57667;SDS011;43499;52.366;12.912;2023-02-13T07:52:57;19.90;;;9.90;;
57667;SDS011;43499;52.366;12.912;2023-02-13T07:54:07;23.13;;;9.70;;
57667;SDS011;43499;52.366;12.912;2023-02-13T07:55:08;22.27;;;10.75;;
57667;SDS011;43499;52.366;12.912;2023-02-13T07:56:11;25.20;;;10.40;;
57667;SDS011;43499;52.366;12.912;2023-02-13T07:57:13;23.45;;;9.95;;
57667;SDS011;43499;52.366;12.912;2023-02-13T07:58:15;25.58;;;11.07;;
57667;SDS011;43499;52.366;12.912;2023-02-13T07:59:19;22.13;;;9.93;;
57667;SDS011;43499;52.366;12.912;2023-02-13T08:00:20;24.83;;;9.80;;
57667;SDS011;43499;52.366;12.912;2023-02-13T08:01:27;25.60;;;11.82;;
57667;SDS011;43499;52.366;12.912;2023-02-13T08:02:28;26.40;;;11.57;;
57667;SDS011;43499;52.366;12.912;2023-02-13T08:03:37;23.38;;;10.52;;
57667;SDS011;43499;52.366;12.912;2023-02-13T08:04:44;30.55;;;12.90;;
57667;SDS011;43499;52.366;12.912;2023-02-13T08:05:48;25.08;;;11.88;;
57667;SDS011;43499;52.366;12.912;2023-02-13T08:06:49;28.92;;;11.80;;
57667;SDS011;43499;52.366;12.912;2023-02-13T08:07:51;28.45;;;13.20;;
57667;SDS011;43499;52.366;12.912;2023-02-13T08:09:01;43.22;;;19.10;;
57667;SDS011;43499;52.366;12.912;2023-02-13T08:10:20;30.10;;;10.82;;
57667;SDS011;43499;52.366;12.912;2023-02-13T08:11:48;18.38;;;9.43;;
57667;SDS011;43499;52.366;12.912;2023-02-13T08:12:53;20.75;;;9.90;;
57667;SDS011;43499;52.366;12.912;2023-02-13T08:13:54;22.25;;;10.25;;
57667;SDS011;43499;52.366;12.912;2023-02-13T08:14:55;23.77;;;10.77;;
57667;SDS011;43499;52.366;12.912;2023-02-13T08:16:02;23.75;;;9.85;;
57667;SDS011;43499;52.366;12.912;2023-02-13T08:17:14;21.20;;;10.02;;
57667;SDS011;43499;52.366;12.912;2023-02-13T08:18:15;23.00;;;10.35;;
57667;SDS011;43499;52.366;12.912;2023-02-13T08:19:46;19.95;;;10.02;;
57667;SDS011;43499;52.366;12.912;2023-02-13T08:20:47;22.92;;;9.55;;
57667;SDS011;43499;52.366;12.912;2023-02-13T08:21:51;19.80;;;9.50;;
57667;SDS011;43499;52.366;12.912;2023-02-13T08:23:01;23.45;;;9.93;;
57667;SDS011;43499;52.366;12.912;2023-02-13T08:24:06;20.52;;;9.75;;
57667;SDS011;43499;52.366;12.912;2023-02-13T08:25:10;20.42;;;10.10;;
57667;SDS011;43499;52.366;12.912;2023-02-13T08:26:16;23.90;;;11.57;;
57667;SDS011;43499;52.366;12.912;2023-02-13T08:27:18;25.02;;;11.80;;
57667;SDS011;43499;52.366;12.912;2023-02-13T08:28:36;19.77;;;9.32;;
57667;SDS011;43499;52.366;12.912;2023-02-13T08:29:40;19.70;;;8.70;;
57667;SDS011;43499;52.366;12.912;2023-02-13T08:30:41;21.60;;;9.85;;
57667;SDS011;43499;52.366;12.912;2023-02-13T08:31:42;21.73;;;9.32;;
57667;SDS011;43499;52.366;12.912;2023-02-13T08:32:44;18.88;;;9.13;;
57667;SDS011;43499;52.366;12.912;2023-02-13T08:33:48;18.58;;;8.85;;
57667;SDS011;43499;52.366;12.912;2023-02-13T08:35:18;21.88;;;8.93;;
57667;SDS011;43499;52.366;12.912;2023-02-13T08:36:32;22.35;;;9.30;;
57667;SDS011;43499;52.366;12.912;2023-02-13T08:37:43;18.65;;;8.68;;
57667;SDS011;43499;52.366;12.912;2023-02-13T08:38:47;19.10;;;9.20;;
57667;SDS011;43499;52.366;12.912;2023-02-13T08:39:49;21.95;;;10.23;;
57667;SDS011;43499;52.366;12.912;2023-02-13T08:40:50;17.05;;;9.43;;
57667;SDS011;43499;52.366;12.912;2023-02-13T08:43:04;19.95;;;8.88;;
57667;SDS011;43499;52.366;12.912;2023-02-13T08:44:08;21.75;;;9.65;;
57667;SDS011;43499;52.366;12.912;2023-02-13T08:45:10;17.95;;;7.97;;
57667;SDS011;43499;52.366;12.912;2023-02-13T08:46:15;21.27;;;9.43;;
57667;SDS011;43499;52.366;12.912;2023-02-13T08:47:36;18.30;;;8.55;;
57667;SDS011;43499;52.366;12.912;2023-02-13T08:48:56;19.45;;;9.70;;
57667;SDS011;43499;52.366;12.912;2023-02-13T08:50:03;19.27;;;8.48;;
57667;SDS011;43499;52.366;12.912;2023-02-13T08:51:15;20.10;;;8.43;;
57667;SDS011;43499;52.366;12.912;2023-02-13T08:52:31;18.30;;;8.55;;
57667;SDS011;43499;52.366;12.912;2023-02-13T08:53:35;20.00;;;9.35;;
57667;SDS011;43499;52.366;12.912;2023-02-13T08:55:01;22.98;;;9.02;;
57667;SDS011;43499;52.366;12.912;2023-02-13T08:56:17;19.05;;;8.20;;
57667;SDS011;43499;52.366;12.912;2023-02-13T08:57:21;20.13;;;8.88;;
57667;SDS011;43499;52.366;12.912;2023-02-13T08:58:49;18.45;;;8.30;;
57667;SDS011;43499;52.366;12.912;2023-02-13T09:00:03;21.13;;;8.73;;
57667;SDS011;43499;52.366;12.912;2023-02-13T09:01:35;15.90;;;7.50;;
57667;SDS011;43499;52.366;12.912;2023-02-13T09:03:00;23.45;;;9.52;;
57667;SDS011;43499;52.366;12.912;2023-02-13T09:04:08;19.45;;;8.80;;
57667;SDS011;43499;52.366;12.912;2023-02-13T09:05:25;19.95;;;8.15;;
57667;SDS011;43499;52.366;12.912;2023-02-13T09:06:32;17.73;;;7.55;;
57667;SDS011;43499;52.366;12.912;2023-02-13T09:07:59;16.58;;;8.57;;
57667;SDS011;43499;52.366;12.912;2023-02-13T09:09:05;24.00;;;9.45;;
57667;SDS011;43499;52.366;12.912;2023-02-13T09:10:33;20.83;;;8.80;;
57667;SDS011;43499;52.366;12.912;2023-02-13T09:11:41;18.15;;;8.27;;
57667;SDS011;43499;52.366;12.912;2023-02-13T09:13:32;22.63;;;9.05;;
57667;SDS011;43499;52.366;12.912;2023-02-13T09:14:46;20.00;;;8.20;;
57667;SDS011;43499;52.366;12.912;2023-02-13T09:15:50;21.05;;;8.50;;
57667;SDS011;43499;52.366;12.912;2023-02-13T09:16:51;17.58;;;8.18;;
57667;SDS011;43499;52.366;12.912;2023-02-13T09:18:09;20.15;;;8.52;;
57667;SDS011;43499;52.366;12.912;2023-02-13T09:19:34;20.05;;;7.88;;
57667;SDS011;43499;52.366;12.912;2023-02-13T09:21:07;19.25;;;8.07;;
57667;SDS011;43499;52.366;12.912;2023-02-13T09:22:10;20.02;;;7.90;;
57667;SDS011;43499;52.366;12.912;2023-02-13T09:23:14;18.63;;;8.13;;
57667;SDS011;43499;52.366;12.912;2023-02-13T09:24:25;19.10;;;9.23;;
57667;SDS011;43499;52.366;12.912;2023-02-13T09:25:27;16.60;;;8.30;;
57667;SDS011;43499;52.366;12.912;2023-02-13T09:26:32;17.70;;;8.68;;
57667;SDS011;43499;52.366;12.912;2023-02-13T09:27:41;17.25;;;7.70;;
57667;SDS011;43499;52.366;12.912;2023-02-13T09:28:47;18.33;;;8.13;;
57667;SDS011;43499;52.366;12.912;2023-02-13T09:30:25;18.00;;;8.30;;
57667;SDS011;43499;52.366;12.912;2023-02-13T09:31:29;21.13;;;7.85;;
57667;SDS011;43499;52.366;12.912;2023-02-13T09:33:51;16.17;;;6.70;;
57667;SDS011;43499;52.366;12.912;2023-02-13T09:35:24;18.48;;;7.55;;
57667;SDS011;43499;52.366;12.912;2023-02-13T09:36:28;20.60;;;8.60;;
57667;SDS011;43499;52.366;12.912;2023-02-13T09:37:30;19.52;;;8.52;;
57667;SDS011;43499;52.366;12.912;2023-02-13T09:38:34;17.83;;;8.13;;
57667;SDS011;43499;52.366;12.912;2023-02-13T09:39:38;17.80;;;7.18;;
57667;SDS011;43499;52.366;12.912;2023-02-13T09:41:00;14.45;;;7.75;;
57667;SDS011;43499;52.366;12.912;2023-02-13T09:42:10;15.35;;;8.20;;
57667;SDS011;43499;52.366;12.912;2023-02-13T09:43:30;18.30;;;8.52;;
57667;SDS011;43499;52.366;12.912;2023-02-13T09:44:37;17.38;;;8.55;;
57667;SDS011;43499;52.366;12.912;2023-02-13T09:45:46;19.20;;;8.35;;
57667;SDS011;43499;52.366;12.912;2023-02-13T09:46:49;17.48;;;7.88;;
57667;SDS011;43499;52.366;12.912;2023-02-13T09:47:50;19.33;;;9.10;;
57667;SDS011;43499;52.366;12.912;2023-02-13T09:48:52;17.40;;;8.65;;
57667;SDS011;43499;52.366;12.912;2023-02-13T09:50:06;20.50;;;10.13;;
57667;SDS011;43499;52.366;12.912;2023-02-13T09:51:22;23.38;;;9.40;;
57667;SDS011;43499;52.366;12.912;2023-02-13T09:52:31;17.65;;;8.63;;
57667;SDS011;43499;52.366;12.912;2023-02-13T09:53:34;20.05;;;9.05;;
57667;SDS011;43499;52.366;12.912;2023-02-13T09:54:47;19.77;;;8.88;;
57667;SDS011;43499;52.366;12.912;2023-02-13T09:56:04;19.30;;;8.98;;
57667;SDS011;43499;52.366;12.912;2023-02-13T09:57:29;18.67;;;9.30;;
57667;SDS011;43499;52.366;12.912;2023-02-13T09:58:57;21.35;;;8.75;;
57667;SDS011;43499;52.366;12.912;2023-02-13T10:00:20;20.73;;;8.55;;
57667;SDS011;43499;52.366;12.912;2023-02-13T10:01:31;19.75;;;9.73;;
57667;SDS011;43499;52.366;12.912;2023-02-13T10:04:11;18.98;;;8.15;;
57667;SDS011;43499;52.366;12.912;2023-02-13T10:06:49;17.20;;;8.10;;
57667;SDS011;43499;52.366;12.912;2023-02-13T10:09:29;19.48;;;8.23;;
57667;SDS011;43499;52.366;12.912;2023-02-13T10:10:43;20.02;;;8.27;;
57667;SDS011;43499;52.366;12.912;2023-02-13T10:12:10;21.75;;;8.57;;
57667;SDS011;43499;52.366;12.912;2023-02-13T10:15:02;23.90;;;9.32;;
57667;SDS011;43499;52.366;12.912;2023-02-13T10:16:19;22.33;;;8.90;;
57667;SDS011;43499;52.366;12.912;2023-02-13T10:17:29;22.10;;;9.50;;
57667;SDS011;43499;52.366;12.912;2023-02-13T10:18:45;21.30;;;9.52;;
57667;SDS011;43499;52.366;12.912;2023-02-13T10:19:54;18.35;;;8.73;;
57667;SDS011;43499;52.366;12.912;2023-02-13T10:21:02;19.38;;;8.98;;
57667;SDS011;43499;52.366;12.912;2023-02-13T10:22:12;17.73;;;8.48;;
57667;SDS011;43499;52.366;12.912;2023-02-13T10:23:37;20.27;;;9.13;;
57667;SDS011;43499;52.366;12.912;2023-02-13T10:26:00;19.88;;;9.15;;
57667;SDS011;43499;52.366;12.912;2023-02-13T10:27:16;22.23;;;9.23;;
57667;SDS011;43499;52.366;12.912;2023-02-13T10:28:41;22.08;;;8.80;;
57667;SDS011;43499;52.366;12.912;2023-02-13T10:30:19;17.45;;;7.88;;
57667;SDS011;43499;52.366;12.912;2023-02-13T10:31:26;18.17;;;8.18;;
57667;SDS011;43499;52.366;12.912;2023-02-13T10:34:23;17.67;;;7.75;;
57667;SDS011;43499;52.366;12.912;2023-02-13T10:35:28;18.52;;;8.35;;
57667;SDS011;43499;52.366;12.912;2023-02-13T10:36:41;18.08;;;8.23;;
57667;SDS011;43499;52.366;12.912;2023-02-13T10:37:46;21.55;;;8.00;;
57667;SDS011;43499;52.366;12.912;2023-02-13T10:39:01;21.95;;;9.15;;
57667;SDS011;43499;52.366;12.912;2023-02-13T10:40:08;19.80;;;9.88;;
57667;SDS011;43499;52.366;12.912;2023-02-13T10:42:55;17.90;;;8.70;;
57667;SDS011;43499;52.366;12.912;2023-02-13T10:47:13;19.02;;;8.57;;
57667;SDS011;43499;52.366;12.912;2023-02-13T10:51:03;18.23;;;7.78;;
57667;SDS011;43499;52.366;12.912;2023-02-13T10:53:40;19.92;;;9.13;;
57667;SDS011;43499;52.366;12.912;2023-02-13T10:59:27;21.00;;;9.02;;
57667;SDS011;43499;52.366;12.912;2023-02-13T11:03:39;20.38;;;8.73;;
57667;SDS011;43499;52.366;12.912;2023-02-13T11:05:05;19.77;;;8.00;;
57667;SDS011;43499;52.366;12.912;2023-02-13T11:06:34;24.13;;;8.55;;
57667;SDS011;43499;52.366;12.912;2023-02-13T11:07:41;15.80;;;8.10;;
57667;SDS011;43499;52.366;12.912;2023-02-13T11:08:45;24.83;;;9.48;;
57667;SDS011;43499;52.366;12.912;2023-02-13T11:09:48;20.58;;;8.88;;
57667;SDS011;43499;52.366;12.912;2023-02-13T11:10:53;19.40;;;8.77;;
57667;SDS011;43499;52.366;12.912;2023-02-13T11:12:21;17.90;;;8.15;;
57667;SDS011;43499;52.366;12.912;2023-02-13T11:13:27;16.50;;;7.28;;
57667;SDS011;43499;52.366;12.912;2023-02-13T11:14:30;18.90;;;8.30;;
57667;SDS011;43499;52.366;12.912;2023-02-13T11:15:49;17.80;;;8.38;;
57667;SDS011;43499;52.366;12.912;2023-02-13T11:17:06;16.77;;;7.57;;
57667;SDS011;43499;52.366;12.912;2023-02-13T11:18:18;16.65;;;7.97;;
57667;SDS011;43499;52.366;12.912;2023-02-13T11:20:47;31.02;;;16.45;;
57667;SDS011;43499;52.366;12.912;2023-02-13T11:22:01;46.08;;;22.15;;
57667;SDS011;43499;52.366;12.912;2023-02-13T11:24:32;34.40;;;15.50;;
57667;SDS011;43499;52.366;12.912;2023-02-13T11:25:36;26.58;;;13.00;;
57667;SDS011;43499;52.366;12.912;2023-02-13T11:26:38;22.13;;;10.52;;
57667;SDS011;43499;52.366;12.912;2023-02-13T11:27:46;24.05;;;11.20;;
57667;SDS011;43499;52.366;12.912;2023-02-13T11:28:53;28.05;;;11.70;;
57667;SDS011;43499;52.366;12.912;2023-02-13T11:30:28;20.23;;;9.27;;
57667;SDS011;43499;52.366;12.912;2023-02-13T11:31:28;20.05;;;10.27;;
57667;SDS011;43499;52.366;12.912;2023-02-13T11:32:31;19.08;;;10.70;;
57667;SDS011;43499;52.366;12.912;2023-02-13T11:33:42;20.73;;;9.50;;
57667;SDS011;43499;52.366;12.912;2023-02-13T11:34:50;18.58;;;9.65;;
57667;SDS011;43499;52.366;12.912;2023-02-13T11:36:13;26.77;;;11.55;;
57667;SDS011;43499;52.366;12.912;2023-02-13T11:37:16;19.23;;;10.38;;
57667;SDS011;43499;52.366;12.912;2023-02-13T11:38:25;17.92;;;9.45;;
57667;SDS011;43499;52.366;12.912;2023-02-13T11:39:33;15.30;;;8.68;;
57667;SDS011;43499;52.366;12.912;2023-02-13T11:40:34;16.27;;;8.27;;
57667;SDS011;43499;52.366;12.912;2023-02-13T11:41:42;17.23;;;9.00;;
57667;SDS011;43499;52.366;12.912;2023-02-13T11:42:44;16.88;;;8.90;;
57667;SDS011;43499;52.366;12.912;2023-02-13T11:44:32;12.85;;;7.65;;
57667;SDS011;43499;52.366;12.912;2023-02-13T11:45:40;19.13;;;9.68;;
57667;SDS011;43499;52.366;12.912;2023-02-13T11:46:46;14.05;;;7.78;;
57667;SDS011;43499;52.366;12.912;2023-02-13T11:47:49;17.75;;;8.45;;
57667;SDS011;43499;52.366;12.912;2023-02-13T11:48:57;17.13;;;7.88;;
57667;SDS011;43499;52.366;12.912;2023-02-13T11:50:05;15.13;;;8.20;;
57667;SDS011;43499;52.366;12.912;2023-02-13T11:51:38;17.70;;;8.40;;
57667;SDS011;43499;52.366;12.912;2023-02-13T11:53:00;14.88;;;7.90;;
57667;SDS011;43499;52.366;12.912;2023-02-13T11:54:18;12.95;;;7.30;;
57667;SDS011;43499;52.366;12.912;2023-02-13T11:55:25;19.10;;;8.82;;
57667;SDS011;43499;52.366;12.912;2023-02-13T11:56:50;13.90;;;7.57;;
57667;SDS011;43499;52.366;12.912;2023-02-13T11:59:25;18.38;;;8.48;;
57667;SDS011;43499;52.366;12.912;2023-02-13T12:01:39;15.48;;;9.15;;
57667;SDS011;43499;52.366;12.912;2023-02-13T12:02:44;22.60;;;10.93;;
57667;SDS011;43499;52.366;12.912;2023-02-13T12:03:56;18.85;;;9.38;;